History Data

Date (GMT-7:00) CPM ACPM uSv/h Latitude Longitude Altitude CO CO2 TVOC HCHO Air Pressure Temperature Humidity Type
2026-06-05 14:44:35 20 17.10 0.100000 41.649648 41.62752893 0 0 0 0 0 0 0 0 STD5.60
2026-06-05 14:39:33 16 17.60 0.080000 41.649648 41.62752893 0 0 0 0 0 0 0 0 STD5.60
2026-06-05 14:34:31 13 17.70 0.065000 41.649648 41.62752893 0 0 0 0 0 0 0 0 STD5.60
2026-06-05 14:29:29 13 17.20 0.065000 41.649648 41.62752893 0 0 0 0 0 0 0 0 STD5.60
2026-06-05 14:24:27 10 16.90 0.050000 41.649648 41.62752893 0 0 0 0 0 0 0 0 STD5.60
2026-06-05 14:19:25 16 18.00 0.080000 41.649648 41.62752893 0 0 0 0 0 0 0 0 STD5.60
2026-06-05 14:14:24 21 18.50 0.105000 41.649648 41.62752893 0 0 0 0 0 0 0 0 STD5.60
2026-06-05 14:09:22 19 17.20 0.095000 41.649648 41.62752893 0 0 0 0 0 0 0 0 STD5.60
2026-06-05 14:04:20 18 18.90 0.090000 41.649648 41.62752893 0 0 0 0 0 0 0 0 STD5.60
2026-06-05 13:59:16 16 19.20 0.080000 41.649648 41.62752893 0 0 0 0 0 0 0 0 STD5.60
2026-06-05 13:54:13 19 16.80 0.095000 41.649648 41.62752893 0 0 0 0 0 0 0 0 STD5.60
2026-06-05 13:49:12 24 16.00 0.120000 41.649648 41.62752893 0 0 0 0 0 0 0 0 STD5.60
2026-06-05 13:44:10 13 17.90 0.065000 41.649648 41.62752893 0 0 0 0 0 0 0 0 STD5.60
2026-06-05 13:39:08 24 17.70 0.120000 41.649648 41.62752893 0 0 0 0 0 0 0 0 STD5.60
2026-06-05 13:34:07 17 16.80 0.085000 41.649648 41.62752893 0 0 0 0 0 0 0 0 STD5.60
2026-06-05 13:29:04 11 17.20 0.055000 41.649648 41.62752893 0 0 0 0 0 0 0 0 STD5.60
2026-06-05 13:24:03 14 16.70 0.070000 41.649648 41.62752893 0 0 0 0 0 0 0 0 STD5.60
2026-06-05 13:19:00 20 16.20 0.100000 41.649648 41.62752893 0 0 0 0 0 0 0 0 STD5.60
2026-06-05 13:13:58 16 16.70 0.080000 41.649648 41.62752893 0 0 0 0 0 0 0 0 STD5.60
2026-06-05 13:08:56 24 15.40 0.120000 41.649648 41.62752893 0 0 0 0 0 0 0 0 STD5.60
2026-06-05 13:03:54 17 6.70 0.085000 41.649648 41.62752893 0 0 0 0 0 0 0 0 STD5.60
2026-06-05 12:58:50 24 18.70 0.120000 41.649648 41.62752893 0 0 0 0 0 0 0 0 STD5.60
2026-06-05 12:53:48 9 17.40 0.045000 41.649648 41.62752893 0 0 0 0 0 0 0 0 STD5.60
2026-06-05 12:48:46 20 18.60 0.100000 41.649648 41.62752893 0 0 0 0 0 0 0 0 STD5.60
2026-06-05 12:43:44 15 18.80 0.075000 41.649648 41.62752893 0 0 0 0 0 0 0 0 STD5.60
2026-06-05 12:38:42 10 18.10 0.050000 41.649648 41.62752893 0 0 0 0 0 0 0 0 STD5.60
2026-06-05 12:33:40 18 16.60 0.090000 41.649648 41.62752893 0 0 0 0 0 0 0 0 STD5.60
2026-06-05 12:28:38 25 15.10 0.125000 41.649648 41.62752893 0 0 0 0 0 0 0 0 STD5.60
2026-06-05 12:23:35 14 15.20 0.070000 41.649648 41.62752893 0 0 0 0 0 0 0 0 STD5.60
2026-06-05 12:18:33 14 15.80 0.070000 41.649648 41.62752893 0 0 0 0 0 0 0 0 STD5.60
2026-06-05 12:13:31 15 16.80 0.075000 41.649648 41.62752893 0 0 0 0 0 0 0 0 STD5.60
2026-06-05 12:08:30 23 18.70 0.115000 41.649648 41.62752893 0 0 0 0 0 0 0 0 STD5.60
2026-06-05 12:03:27 13 17.20 0.065000 41.649648 41.62752893 0 0 0 0 0 0 0 0 STD5.60
2026-06-05 11:58:24 23 17.00 0.115000 41.649648 41.62752893 0 0 0 0 0 0 0 0 STD5.60
2026-06-05 11:53:21 12 18.50 0.060000 41.649648 41.62752893 0 0 0 0 0 0 0 0 STD5.60
2026-06-05 11:48:19 20 19.10 0.100000 41.649648 41.62752893 0 0 0 0 0 0 0 0 STD5.60
2026-06-05 11:43:17 26 18.80 0.130000 41.649648 41.62752893 0 0 0 0 0 0 0 0 STD5.60
2026-06-05 11:38:15 20 18.20 0.100000 41.649648 41.62752893 0 0 0 0 0 0 0 0 STD5.60
2026-06-05 11:33:13 14 16.70 0.070000 41.649648 41.62752893 0 0 0 0 0 0 0 0 STD5.60
2026-06-05 11:28:10 15 16.70 0.075000 41.649648 41.62752893 0 0 0 0 0 0 0 0 STD5.60
2026-06-05 11:23:08 13 18.10 0.065000 41.649648 41.62752893 0 0 0 0 0 0 0 0 STD5.60
2026-06-05 11:18:06 12 19.50 0.060000 41.649648 41.62752893 0 0 0 0 0 0 0 0 STD5.60
2026-06-05 11:13:04 33 21.00 0.165000 41.649648 41.62752893 0 0 0 0 0 0 0 0 STD5.60
2026-06-05 11:08:03 20 19.20 0.100000 41.649648 41.62752893 0 0 0 0 0 0 0 0 STD5.60
2026-06-05 11:03:00 17 17.00 0.085000 41.649648 41.62752893 0 0 0 0 0 0 0 0 STD5.60
2026-06-05 10:57:56 13 15.70 0.065000 41.649648 41.62752893 0 0 0 0 0 0 0 0 STD5.60
2026-06-05 10:52:54 19 15.70 0.095000 41.649648 41.62752893 0 0 0 0 0 0 0 0 STD5.60
2026-06-05 10:47:52 18 17.20 0.090000 41.649648 41.62752893 0 0 0 0 0 0 0 0 STD5.60
2026-06-05 10:42:50 10 16.40 0.050000 41.649648 41.62752893 0 0 0 0 0 0 0 0 STD5.60
2026-06-05 10:37:48 12 16.10 0.060000 41.649648 41.62752893 0 0 0 0 0 0 0 0 STD5.60
2026-06-05 10:32:46 21 18.80 0.105000 41.649648 41.62752893 0 0 0 0 0 0 0 0 STD5.60
2026-06-05 10:27:44 16 21.00 0.080000 41.649648 41.62752893 0 0 0 0 0 0 0 0 STD5.60
2026-06-05 10:22:42 20 18.80 0.100000 41.649648 41.62752893 0 0 0 0 0 0 0 0 STD5.60
2026-06-05 10:17:40 17 16.30 0.085000 41.649648 41.62752893 0 0 0 0 0 0 0 0 STD5.60
2026-06-05 10:12:38 10 16.80 0.050000 41.649648 41.62752893 0 0 0 0 0 0 0 0 STD5.60
2026-06-05 10:07:37 12 19.30 0.060000 41.649648 41.62752893 0 0 0 0 0 0 0 0 STD5.60
2026-06-05 10:02:34 22 22.60 0.110000 41.649648 41.62752893 0 0 0 0 0 0 0 0 STD5.60
2026-06-05 09:57:30 32 18.50 0.160000 41.649648 41.62752893 0 0 0 0 0 0 0 0 STD5.60
2026-06-05 09:52:28 13 16.60 0.065000 41.649648 41.62752893 0 0 0 0 0 0 0 0 STD5.60
2026-06-05 09:47:26 24 19.90 0.120000 41.649648 41.62752893 0 0 0 0 0 0 0 0 STD5.60
2026-06-05 09:42:24 21 18.60 0.105000 41.649648 41.62752893 0 0 0 0 0 0 0 0 STD5.60
2026-06-05 09:37:22 20 16.50 0.100000 41.649648 41.62752893 0 0 0 0 0 0 0 0 STD5.60
2026-06-05 09:32:20 14 15.60 0.070000 41.649648 41.62752893 0 0 0 0 0 0 0 0 STD5.60
2026-06-05 09:27:17 18 17.10 0.090000 41.649648 41.62752893 0 0 0 0 0 0 0 0 STD5.60
2026-06-05 09:22:16 24 18.30 0.120000 41.649648 41.62752893 0 0 0 0 0 0 0 0 STD5.60
2026-06-05 09:17:14 23 16.70 0.115000 41.649648 41.62752893 0 0 0 0 0 0 0 0 STD5.60
2026-06-05 09:12:12 10 16.00 0.050000 41.649648 41.62752893 0 0 0 0 0 0 0 0 STD5.60
2026-06-05 09:07:10 12 16.70 0.060000 41.649648 41.62752893 0 0 0 0 0 0 0 0 STD5.60
2026-06-05 09:02:08 21 18.00 0.105000 41.649648 41.62752893 0 0 0 0 0 0 0 0 STD5.60
2026-06-05 08:57:04 19 16.50 0.095000 41.649648 41.62752893 0 0 0 0 0 0 0 0 STD5.60
2026-06-05 08:52:02 17 17.40 0.085000 41.649648 41.62752893 0 0 0 0 0 0 0 0 STD5.60
2026-06-05 08:47:00 21 19.20 0.105000 41.649648 41.62752893 0 0 0 0 0 0 0 0 STD5.60
2026-06-05 08:41:58 25 18.70 0.125000 41.649648 41.62752893 0 0 0 0 0 0 0 0 STD5.60
2026-06-05 08:36:55 17 20.10 0.085000 41.649648 41.62752893 0 0 0 0 0 0 0 0 STD5.60
2026-06-05 08:31:53 21 20.80 0.105000 41.649648 41.62752893 0 0 0 0 0 0 0 0 STD5.60
2026-06-05 08:26:51 13 18.70 0.065000 41.649648 41.62752893 0 0 0 0 0 0 0 0 STD5.60
2026-06-05 08:21:49 19 18.80 0.095000 41.649648 41.62752893 0 0 0 0 0 0 0 0 STD5.60
2026-06-05 08:16:48 20 19.30 0.100000 41.649648 41.62752893 0 0 0 0 0 0 0 0 STD5.60
2026-06-05 08:11:46 18 17.00 0.090000 41.649648 41.62752893 0 0 0 0 0 0 0 0 STD5.60
2026-06-05 08:06:44 24 17.40 0.120000 41.649648 41.62752893 0 0 0 0 0 0 0 0 STD5.60
2026-06-05 08:01:42 10 19.10 0.050000 41.649648 41.62752893 0 0 0 0 0 0 0 0 STD5.60
2026-06-05 07:56:37 23 17.20 0.115000 41.649648 41.62752893 0 0 0 0 0 0 0 0 STD5.60
2026-06-05 07:51:35 17 15.50 0.085000 41.649648 41.62752893 0 0 0 0 0 0 0 0 STD5.60
2026-06-05 07:46:33 20 14.40 0.100000 41.649648 41.62752893 0 0 0 0 0 0 0 0 STD5.60
2026-06-05 07:41:31 16 16.00 0.080000 41.649648 41.62752893 0 0 0 0 0 0 0 0 STD5.60
2026-06-05 07:36:29 16 17.40 0.080000 41.649648 41.62752893 0 0 0 0 0 0 0 0 STD5.60
2026-06-05 07:31:27 23 18.00 0.115000 41.649648 41.62752893 0 0 0 0 0 0 0 0 STD5.60
2026-06-05 07:26:24 20 18.70 0.100000 41.649648 41.62752893 0 0 0 0 0 0 0 0 STD5.60
2026-06-05 07:21:22 21 18.00 0.105000 41.649648 41.62752893 0 0 0 0 0 0 0 0 STD5.60
2026-06-05 07:16:20 16 17.50 0.080000 41.649648 41.62752893 0 0 0 0 0 0 0 0 STD5.60
2026-06-05 07:11:18 15 17.50 0.075000 41.649648 41.62752893 0 0 0 0 0 0 0 0 STD5.60
2026-06-05 07:06:17 25 18.10 0.125000 41.649648 41.62752893 0 0 0 0 0 0 0 0 STD5.60
2026-06-05 07:01:15 17 17.90 0.085000 41.649648 41.62752893 0 0 0 0 0 0 0 0 STD5.60
2026-06-05 06:56:10 23 17.30 0.115000 41.649648 41.62752893 0 0 0 0 0 0 0 0 STD5.60
2026-06-05 06:51:08 12 16.30 0.060000 41.649648 41.62752893 0 0 0 0 0 0 0 0 STD5.60
2026-06-05 06:46:06 17 16.00 0.085000 41.649648 41.62752893 0 0 0 0 0 0 0 0 STD5.60
2026-06-05 06:41:04 14 18.40 0.070000 41.649648 41.62752893 0 0 0 0 0 0 0 0 STD5.60
2026-06-05 06:36:02 24 20.00 0.120000 41.649648 41.62752893 0 0 0 0 0 0 0 0 STD5.60
2026-06-05 06:31:01 16 17.60 0.080000 41.649648 41.62752893 0 0 0 0 0 0 0 0 STD5.60
2026-06-05 06:25:57 23 17.40 0.115000 41.649648 41.62752893 0 0 0 0 0 0 0 0 STD5.60
2026-06-05 06:20:55 20 17.70 0.100000 41.649648 41.62752893 0 0 0 0 0 0 0 0 STD5.60
2026-06-05 06:15:53 16 17.90 0.080000 41.649648 41.62752893 0 0 0 0 0 0 0 0 STD5.60
2026-06-05 06:10:51 13 19.10 0.065000 41.649648 41.62752893 0 0 0 0 0 0 0 0 STD5.60
2026-06-05 06:05:50 11 19.30 0.055000 41.649648 41.62752893 0 0 0 0 0 0 0 0 STD5.60
2026-06-05 06:00:55 20 18.60 0.100000 41.649648 41.62752893 0 0 0 0 0 0 0 0 STD5.60
2026-06-05 05:55:42 8 17.00 0.040000 41.649648 41.62752893 0 0 0 0 0 0 0 0 STD5.60
2026-06-05 05:50:40 17 18.70 0.085000 41.649648 41.62752893 0 0 0 0 0 0 0 0 STD5.60
2026-06-05 05:45:38 22 20.00 0.110000 41.649648 41.62752893 0 0 0 0 0 0 0 0 STD5.60
2026-06-05 05:40:36 18 19.30 0.090000 41.649648 41.62752893 0 0 0 0 0 0 0 0 STD5.60
2026-06-05 05:35:34 18 17.60 0.090000 41.649648 41.62752893 0 0 0 0 0 0 0 0 STD5.60
2026-06-05 05:30:32 14 17.80 0.070000 41.649648 41.62752893 0 0 0 0 0 0 0 0 STD5.60
2026-06-05 05:25:30 17 19.90 0.085000 41.649648 41.62752893 0 0 0 0 0 0 0 0 STD5.60
2026-06-05 05:20:27 16 18.40 0.080000 41.649648 41.62752893 0 0 0 0 0 0 0 0 STD5.60
2026-06-05 05:15:25 22 18.40 0.110000 41.649648 41.62752893 0 0 0 0 0 0 0 0 STD5.60
2026-06-05 05:10:23 20 19.30 0.100000 41.649648 41.62752893 0 0 0 0 0 0 0 0 STD5.60
2026-06-05 05:05:22 25 17.70 0.125000 41.649648 41.62752893 0 0 0 0 0 0 0 0 STD5.60
2026-06-05 05:00:21 21 17.10 0.105000 41.649648 41.62752893 0 0 0 0 0 0 0 0 STD5.60
2026-06-05 04:55:14 20 16.70 0.100000 41.649648 41.62752893 0 0 0 0 0 0 0 0 STD5.60
2026-06-05 04:50:12 16 15.80 0.080000 41.649648 41.62752893 0 0 0 0 0 0 0 0 STD5.60
2026-06-05 04:45:11 11 17.10 0.055000 41.649648 41.62752893 0 0 0 0 0 0 0 0 STD5.60
2026-06-05 04:40:09 15 18.20 0.075000 41.649648 41.62752893 0 0 0 0 0 0 0 0 STD5.60
2026-06-05 04:35:07 13 19.80 0.065000 41.649648 41.62752893 0 0 0 0 0 0 0 0 STD5.60
2026-06-05 04:30:07 36 19.80 0.180000 41.649648 41.62752893 0 0 0 0 0 0 0 0 STD5.60
2026-06-05 04:25:03 18 17.50 0.090000 41.649648 41.62752893 0 0 0 0 0 0 0 0 STD5.60
2026-06-05 04:20:01 25 17.30 0.125000 41.649648 41.62752893 0 0 0 0 0 0 0 0 STD5.60
2026-06-05 04:14:59 17 18.40 0.085000 41.649648 41.62752893 0 0 0 0 0 0 0 0 STD5.60
2026-06-05 04:09:57 18 18.30 0.090000 41.649648 41.62752893 0 0 0 0 0 0 0 0 STD5.60
2026-06-05 04:04:55 14 19.30 0.070000 41.649648 41.62752893 0 0 0 0 0 0 0 0 STD5.60
2026-06-05 03:59:53 23 20.80 0.115000 41.649648 41.62752893 0 0 0 0 0 0 0 0 STD5.60
2026-06-05 03:54:49 16 19.20 0.080000 41.649648 41.62752893 0 0 0 0 0 0 0 0 STD5.60
2026-06-05 03:49:48 20 17.10 0.100000 41.649648 41.62752893 0 0 0 0 0 0 0 0 STD5.60
2026-06-05 03:44:46 16 14.80 0.080000 41.649648 41.62752893 0 0 0 0 0 0 0 0 STD5.60
2026-06-05 03:39:43 19 16.50 0.095000 41.649648 41.62752893 0 0 0 0 0 0 0 0 STD5.60
2026-06-05 03:34:42 19 20.30 0.095000 41.649648 41.62752893 0 0 0 0 0 0 0 0 STD5.60
2026-06-05 03:29:39 31 18.10 0.155000 41.649648 41.62752893 0 0 0 0 0 0 0 0 STD5.60
2026-06-05 03:24:38 12 15.20 0.060000 41.649648 41.62752893 0 0 0 0 0 0 0 0 STD5.60
2026-06-05 03:19:36 14 15.60 0.070000 41.649648 41.62752893 0 0 0 0 0 0 0 0 STD5.60
2026-06-05 03:14:34 13 15.70 0.065000 41.649648 41.62752893 0 0 0 0 0 0 0 0 STD5.60
2026-06-05 03:09:32 15 16.50 0.075000 41.649648 41.62752893 0 0 0 0 0 0 0 0 STD5.60
2026-06-05 03:04:30 18 17.60 0.090000 41.649648 41.62752893 0 0 0 0 0 0 0 0 STD5.60
2026-06-05 02:59:27 17 19.60 0.085000 41.649648 41.62752893 0 0 0 0 0 0 0 0 STD5.60
2026-06-05 02:54:23 22 19.90 0.110000 41.649648 41.62752893 0 0 0 0 0 0 0 0 STD5.60
2026-06-05 02:49:21 23 17.10 0.115000 41.649648 41.62752893 0 0 0 0 0 0 0 0 STD5.60
2026-06-05 02:44:19 18 16.90 0.090000 41.649648 41.62752893 0 0 0 0 0 0 0 0 STD5.60
2026-06-05 02:39:17 21 17.20 0.105000 41.649648 41.62752893 0 0 0 0 0 0 0 0 STD5.60
2026-06-05 02:34:15 15 16.70 0.075000 41.649648 41.62752893 0 0 0 0 0 0 0 0 STD5.60
2026-06-05 02:29:13 14 17.10 0.070000 41.649648 41.62752893 0 0 0 0 0 0 0 0 STD5.60
2026-06-05 02:24:11 15 18.60 0.075000 41.649648 41.62752893 0 0 0 0 0 0 0 0 STD5.60
2026-06-05 02:19:09 18 18.90 0.090000 41.649648 41.62752893 0 0 0 0 0 0 0 0 STD5.60
2026-06-05 02:14:07 14 18.30 0.070000 41.649648 41.62752893 0 0 0 0 0 0 0 0 STD5.60
2026-06-05 02:09:05 15 18.40 0.075000 41.649648 41.62752893 0 0 0 0 0 0 0 0 STD5.60
2026-06-05 02:04:03 16 17.90 0.080000 41.649648 41.62752893 0 0 0 0 0 0 0 0 STD5.60
2026-06-05 01:59:01 19 18.00 0.095000 41.649648 41.62752893 0 0 0 0 0 0 0 0 STD5.60
2026-06-05 01:53:57 13 18.90 0.065000 41.649648 41.62752893 0 0 0 0 0 0 0 0 STD5.60
2026-06-05 01:48:55 26 19.40 0.130000 41.649648 41.62752893 0 0 0 0 0 0 0 0 STD5.60
2026-06-05 01:43:52 12 20.00 0.060000 41.649648 41.62752893 0 0 0 0 0 0 0 0 STD5.60
2026-06-05 01:38:50 29 21.00 0.145000 41.649648 41.62752893 0 0 0 0 0 0 0 0 STD5.60
2026-06-05 01:33:49 18 19.80 0.090000 41.649648 41.62752893 0 0 0 0 0 0 0 0 STD5.60
2026-06-05 01:28:46 20 17.90 0.100000 41.649648 41.62752893 0 0 0 0 0 0 0 0 STD5.60
2026-06-05 01:23:44 10 17.50 0.050000 41.649648 41.62752893 0 0 0 0 0 0 0 0 STD5.60
2026-06-05 01:18:42 26 16.00 0.130000 41.649648 41.62752893 0 0 0 0 0 0 0 0 STD5.60
2026-06-05 01:13:40 17 16.70 0.085000 41.649648 41.62752893 0 0 0 0 0 0 0 0 STD5.60
2026-06-05 01:08:38 21 17.90 0.105000 41.649648 41.62752893 0 0 0 0 0 0 0 0 STD5.60
2026-06-05 01:03:36 15 15.50 0.075000 41.649648 41.62752893 0 0 0 0 0 0 0 0 STD5.60
2026-06-05 00:58:34 18 16.90 0.090000 41.649648 41.62752893 0 0 0 0 0 0 0 0 STD5.60
2026-06-05 00:53:30 18 18.90 0.090000 41.649648 41.62752893 0 0 0 0 0 0 0 0 STD5.60
2026-06-05 00:48:28 16 16.70 0.080000 41.649648 41.62752893 0 0 0 0 0 0 0 0 STD5.60
2026-06-05 00:43:26 16 16.80 0.080000 41.649648 41.62752893 0 0 0 0 0 0 0 0 STD5.60
2026-06-05 00:38:24 23 18.70 0.115000 41.649648 41.62752893 0 0 0 0 0 0 0 0 STD5.60
2026-06-05 00:33:22 16 18.60 0.080000 41.649648 41.62752893 0 0 0 0 0 0 0 0 STD5.60
2026-06-05 00:28:20 21 16.70 0.105000 41.649648 41.62752893 0 0 0 0 0 0 0 0 STD5.60
2026-06-05 00:23:18 12 15.00 0.060000 41.649648 41.62752893 0 0 0 0 0 0 0 0 STD5.60
2026-06-05 00:18:16 18 15.10 0.090000 41.649648 41.62752893 0 0 0 0 0 0 0 0 STD5.60
2026-06-05 00:13:14 14 15.60 0.070000 41.649648 41.62752893 0 0 0 0 0 0 0 0 STD5.60
2026-06-05 00:08:12 20 18.00 0.100000 41.649648 41.62752893 0 0 0 0 0 0 0 0 STD5.60
2026-06-05 00:03:10 20 19.50 0.100000 41.649648 41.62752893 0 0 0 0 0 0 0 0 STD5.60
2026-06-04 23:58:08 17 19.30 0.085000 41.649648 41.62752893 0 0 0 0 0 0 0 0 STD5.60
2026-06-04 23:53:04 27 19.00 0.135000 41.649648 41.62752893 0 0 0 0 0 0 0 0 STD5.60
2026-06-04 23:48:02 18 17.90 0.090000 41.649648 41.62752893 0 0 0 0 0 0 0 0 STD5.60
2026-06-04 23:43:00 24 17.90 0.120000 41.649648 41.62752893 0 0 0 0 0 0 0 0 STD5.60
2026-06-04 23:37:58 22 16.50 0.110000 41.649648 41.62752893 0 0 0 0 0 0 0 0 STD5.60
2026-06-04 23:32:56 16 16.80 0.080000 41.649648 41.62752893 0 0 0 0 0 0 0 0 STD5.60
2026-06-04 23:27:54 19 18.20 0.095000 41.649648 41.62752893 0 0 0 0 0 0 0 0 STD5.60
2026-06-04 23:22:52 11 19.60 0.055000 41.649648 41.62752893 0 0 0 0 0 0 0 0 STD5.60
2026-06-04 23:17:50 17 18.80 0.085000 41.649648 41.62752893 0 0 0 0 0 0 0 0 STD5.60
2026-06-04 23:12:48 11 17.70 0.055000 41.649648 41.62752893 0 0 0 0 0 0 0 0 STD5.60
2026-06-04 23:07:46 16 18.00 0.080000 41.649648 41.62752893 0 0 0 0 0 0 0 0 STD5.60
2026-06-04 23:02:44 19 17.40 0.095000 41.649648 41.62752893 0 0 0 0 0 0 0 0 STD5.60
2026-06-04 22:57:42 9 17.30 0.045000 41.649648 41.62752893 0 0 0 0 0 0 0 0 STD5.60
2026-06-04 22:52:36 20 18.20 0.100000 41.649648 41.62752893 0 0 0 0 0 0 0 0 STD5.60
2026-06-04 22:47:34 21 20.00 0.105000 41.649648 41.62752893 0 0 0 0 0 0 0 0 STD5.60
2026-06-04 22:42:32 21 18.80 0.105000 41.649648 41.62752893 0 0 0 0 0 0 0 0 STD5.60
2026-06-04 22:37:30 19 18.00 0.095000 41.649648 41.62752893 0 0 0 0 0 0 0 0 STD5.60
2026-06-04 22:32:28 25 17.90 0.125000 41.649648 41.62752893 0 0 0 0 0 0 0 0 STD5.60
2026-06-04 22:27:26 15 16.70 0.075000 41.649648 41.62752893 0 0 0 0 0 0 0 0 STD5.60
2026-06-04 22:22:24 14 18.80 0.070000 41.649648 41.62752893 0 0 0 0 0 0 0 0 STD5.60
2026-06-04 22:17:22 20 18.70 0.100000 41.649648 41.62752893 0 0 0 0 0 0 0 0 STD5.60
2026-06-04 22:12:20 10 16.70 0.050000 41.649648 41.62752893 0 0 0 0 0 0 0 0 STD5.60
2026-06-04 22:07:18 16 17.30 0.080000 41.649648 41.62752893 0 0 0 0 0 0 0 0 STD5.60
2026-06-04 22:02:16 14 17.50 0.070000 41.649648 41.62752893 0 0 0 0 0 0 0 0 STD5.60
2026-06-04 21:57:14 16 16.20 0.080000 41.649648 41.62752893 0 0 0 0 0 0 0 0 STD5.60
2026-06-04 21:52:10 14 16.30 0.070000 41.649648 41.62752893 0 0 0 0 0 0 0 0 STD5.60
2026-06-04 21:47:07 18 17.40 0.090000 41.649648 41.62752893 0 0 0 0 0 0 0 0 STD5.60
2026-06-04 21:42:05 18 16.40 0.090000 41.649648 41.62752893 0 0 0 0 0 0 0 0 STD5.60
2026-06-04 21:37:03 14 17.00 0.070000 41.649648 41.62752893 0 0 0 0 0 0 0 0 STD5.60
2026-06-04 21:32:01 22 17.60 0.110000 41.649648 41.62752893 0 0 0 0 0 0 0 0 STD5.60
2026-06-04 21:26:59 23 15.70 0.115000 41.649648 41.62752893 0 0 0 0 0 0 0 0 STD5.60
2026-06-04 21:21:58 19 16.30 0.095000 41.649648 41.62752893 0 0 0 0 0 0 0 0 STD5.60
2026-06-04 21:16:55 16 16.70 0.080000 41.649648 41.62752893 0 0 0 0 0 0 0 0 STD5.60
2026-06-04 21:11:53 15 17.60 0.075000 41.649648 41.62752893 0 0 0 0 0 0 0 0 STD5.60
2026-06-04 21:06:51 23 17.50 0.115000 41.649648 41.62752893 0 0 0 0 0 0 0 0 STD5.60
2026-06-04 21:01:51 12 16.00 0.060000 41.649648 41.62752893 0 0 0 0 0 0 0 0 STD5.60
2026-06-04 20:56:47 21 16.30 0.105000 41.649648 41.62752893 0 0 0 0 0 0 0 0 STD5.60
2026-06-04 20:51:43 15 17.10 0.075000 41.649648 41.62752893 0 0 0 0 0 0 0 0 STD5.60
2026-06-04 20:46:41 15 19.70 0.075000 41.649648 41.62752893 0 0 0 0 0 0 0 0 STD5.60
2026-06-04 20:41:39 19 20.50 0.095000 41.649648 41.62752893 0 0 0 0 0 0 0 0 STD5.60
2026-06-04 20:36:37 22 19.90 0.110000 41.649648 41.62752893 0 0 0 0 0 0 0 0 STD5.60
2026-06-04 20:31:35 25 19.10 0.125000 41.649648 41.62752893 0 0 0 0 0 0 0 0 STD5.60
2026-06-04 20:26:33 14 18.00 0.070000 41.649648 41.62752893 0 0 0 0 0 0 0 0 STD5.60
2026-06-04 20:21:31 8 18.10 0.040000 41.649648 41.62752893 0 0 0 0 0 0 0 0 STD5.60
2026-06-04 20:16:29 21 18.30 0.105000 41.649648 41.62752893 0 0 0 0 0 0 0 0 STD5.60
2026-06-04 20:11:26 11 18.10 0.055000 41.649648 41.62752893 0 0 0 0 0 0 0 0 STD5.60
2026-06-04 20:06:24 16 17.60 0.080000 41.649648 41.62752893 0 0 0 0 0 0 0 0 STD5.60
2026-06-04 20:01:23 27 17.10 0.135000 41.649648 41.62752893 0 0 0 0 0 0 0 0 STD5.60
2026-06-04 19:56:21 14 15.80 0.070000 41.649648 41.62752893 0 0 0 0 0 0 0 0 STD5.60
2026-06-04 19:51:17 13 15.00 0.065000 41.649648 41.62752893 0 0 0 0 0 0 0 0 STD5.60
2026-06-04 19:46:15 17 16.80 0.085000 41.649648 41.62752893 0 0 0 0 0 0 0 0 STD5.60
2026-06-04 19:41:13 18 18.80 0.090000 41.649648 41.62752893 0 0 0 0 0 0 0 0 STD5.60
2026-06-04 19:36:11 19 17.80 0.095000 41.649648 41.62752893 0 0 0 0 0 0 0 0 STD5.60
2026-06-04 19:31:09 17 16.80 0.085000 41.649648 41.62752893 0 0 0 0 0 0 0 0 STD5.60
2026-06-04 19:26:07 27 19.40 0.135000 41.649648 41.62752893 0 0 0 0 0 0 0 0 STD5.60
2026-06-04 19:21:05 22 20.00 0.110000 41.649648 41.62752893 0 0 0 0 0 0 0 0 STD5.60
2026-06-04 19:16:03 19 18.50 0.095000 41.649648 41.62752893 0 0 0 0 0 0 0 0 STD5.60
2026-06-04 19:11:01 15 17.50 0.075000 41.649648 41.62752893 0 0 0 0 0 0 0 0 STD5.60
2026-06-04 19:05:59 15 18.00 0.075000 41.649648 41.62752893 0 0 0 0 0 0 0 0 STD5.60
2026-06-04 19:00:57 26 20.10 0.130000 41.649648 41.62752893 0 0 0 0 0 0 0 0 STD5.60
2026-06-04 18:55:55 21 20.80 0.105000 41.649648 41.62752893 0 0 0 0 0 0 0 0 STD5.60
2026-06-04 18:50:51 21 19.10 0.105000 41.649648 41.62752893 0 0 0 0 0 0 0 0 STD5.60
2026-06-04 18:45:50 20 15.80 0.100000 41.649648 41.62752893 0 0 0 0 0 0 0 0 STD5.60
2026-06-04 18:40:48 14 16.70 0.070000 41.649648 41.62752893 0 0 0 0 0 0 0 0 STD5.60
2026-06-04 18:35:46 16 17.50 0.080000 41.649648 41.62752893 0 0 0 0 0 0 0 0 STD5.60
2026-06-04 18:30:44 11 17.90 0.055000 41.649648 41.62752893 0 0 0 0 0 0 0 0 STD5.60
2026-06-04 18:25:42 14 18.20 0.070000 41.649648 41.62752893 0 0 0 0 0 0 0 0 STD5.60
2026-06-04 18:20:40 13 19.20 0.065000 41.649648 41.62752893 0 0 0 0 0 0 0 0 STD5.60
2026-06-04 18:15:38 35 20.70 0.175000 41.649648 41.62752893 0 0 0 0 0 0 0 0 STD5.60
2026-06-04 18:10:36 23 19.10 0.115000 41.649648 41.62752893 0 0 0 0 0 0 0 0 STD5.60
2026-06-04 18:05:35 20 17.40 0.100000 41.649648 41.62752893 0 0 0 0 0 0 0 0 STD5.60
2026-06-04 18:00:33 15 16.10 0.075000 41.649648 41.62752893 0 0 0 0 0 0 0 0 STD5.60
2026-06-04 17:55:31 14 16.80 0.070000 41.649648 41.62752893 0 0 0 0 0 0 0 0 STD5.60
2026-06-04 17:50:27 21 17.90 0.105000 41.649648 41.62752893 0 0 0 0 0 0 0 0 STD5.60
2026-06-04 17:45:25 18 15.80 0.090000 41.649648 41.62752893 0 0 0 0 0 0 0 0 STD5.60
2026-06-04 17:40:23 15 15.90 0.075000 41.649648 41.62752893 0 0 0 0 0 0 0 0 STD5.60
2026-06-04 17:35:21 22 19.40 0.110000 41.649648 41.62752893 0 0 0 0 0 0 0 0 STD5.60
2026-06-04 17:30:19 19 19.40 0.095000 41.649648 41.62752893 0 0 0 0 0 0 0 0 STD5.60
2026-06-04 17:25:17 18 18.60 0.090000 41.649648 41.62752893 0 0 0 0 0 0 0 0 STD5.60
2026-06-04 17:20:15 21 17.70 0.105000 41.649648 41.62752893 0 0 0 0 0 0 0 0 STD5.60
2026-06-04 17:15:13 15 16.70 0.075000 41.649648 41.62752893 0 0 0 0 0 0 0 0 STD5.60
2026-06-04 17:10:11 22 19.10 0.110000 41.649648 41.62752893 0 0 0 0 0 0 0 0 STD5.60
2026-06-04 17:05:09 13 22.30 0.065000 41.649648 41.62752893 0 0 0 0 0 0 0 0 STD5.60
2026-06-04 17:00:08 27 21.60 0.135000 41.649648 41.62752893 0 0 0 0 0 0 0 0 STD5.60
2026-06-04 16:55:04 20 19.00 0.100000 41.649648 41.62752893 0 0 0 0 0 0 0 0 STD5.60
2026-06-04 16:50:02 20 19.00 0.100000 41.649648 41.62752893 0 0 0 0 0 0 0 0 STD5.60
2026-06-04 16:45:00 20 17.70 0.100000 41.649648 41.62752893 0 0 0 0 0 0 0 0 STD5.60
2026-06-04 16:39:57 19 18.20 0.095000 41.649648 41.62752893 0 0 0 0 0 0 0 0 STD5.60
2026-06-04 16:34:56 27 19.50 0.135000 41.649648 41.62752893 0 0 0 0 0 0 0 0 STD5.60
2026-06-04 16:29:54 17 16.30 0.085000 41.649648 41.62752893 0 0 0 0 0 0 0 0 STD5.60
2026-06-04 16:24:52 11 15.60 0.055000 41.649648 41.62752893 0 0 0 0 0 0 0 0 STD5.60
2026-06-04 16:19:50 18 18.40 0.090000 41.649648 41.62752893 0 0 0 0 0 0 0 0 STD5.60
2026-06-04 16:14:48 14 18.80 0.070000 41.649648 41.62752893 0 0 0 0 0 0 0 0 STD5.60
2026-06-04 16:09:46 24 18.10 0.120000 41.649648 41.62752893 0 0 0 0 0 0 0 0 STD5.60
2026-06-04 16:04:44 18 16.60 0.090000 41.649648 41.62752893 0 0 0 0 0 0 0 0 STD5.60
2026-06-04 15:59:42 17 17.00 0.085000 41.649648 41.62752893 0 0 0 0 0 0 0 0 STD5.60
2026-06-04 15:54:38 29 18.40 0.145000 41.649648 41.62752893 0 0 0 0 0 0 0 0 STD5.60
2026-06-04 15:49:36 17 18.30 0.085000 41.649648 41.62752893 0 0 0 0 0 0 0 0 STD5.60
2026-06-04 15:44:34 20 17.30 0.100000 41.649648 41.62752893 0 0 0 0 0 0 0 0 STD5.60
2026-06-04 15:39:32 12 17.60 0.060000 41.649648 41.62752893 0 0 0 0 0 0 0 0 STD5.60
2026-06-04 15:34:30 24 18.00 0.120000 41.649648 41.62752893 0 0 0 0 0 0 0 0 STD5.60
2026-06-04 15:29:28 19 18.20 0.095000 41.649648 41.62752893 0 0 0 0 0 0 0 0 STD5.60
2026-06-04 15:24:26 16 17.90 0.080000 41.649648 41.62752893 0 0 0 0 0 0 0 0 STD5.60
2026-06-04 15:19:24 16 17.10 0.080000 41.649648 41.62752893 0 0 0 0 0 0 0 0 STD5.60
2026-06-04 15:14:22 22 17.20 0.110000 41.649648 41.62752893 0 0 0 0 0 0 0 0 STD5.60
2026-06-04 15:09:20 14 17.20 0.070000 41.649648 41.62752893 0 0 0 0 0 0 0 0 STD5.60
2026-06-04 15:04:18 12 18.30 0.060000 41.649648 41.62752893 0 0 0 0 0 0 0 0 STD5.60
2026-06-04 14:59:16 22 18.70 0.110000 41.649648 41.62752893 0 0 0 0 0 0 0 0 STD5.60
2026-06-04 14:54:12 19 18.70 0.095000 41.649648 41.62752893 0 0 0 0 0 0 0 0 STD5.60
2026-06-04 14:49:10 17 18.30 0.085000 41.649648 41.62752893 0 0 0 0 0 0 0 0 STD5.60
2026-06-04 14:44:08 15 18.20 0.075000 41.649648 41.62752893 0 0 0 0 0 0 0 0 STD5.60
2026-06-04 14:39:06 21 18.00 0.105000 41.649648 41.62752893 0 0 0 0 0 0 0 0 STD5.60
2026-06-04 14:34:04 17 18.00 0.085000 41.649648 41.62752893 0 0 0 0 0 0 0 0 STD5.60
2026-06-04 14:29:02 14 17.90 0.070000 41.649648 41.62752893 0 0 0 0 0 0 0 0 STD5.60
2026-06-04 14:24:00 19 17.80 0.095000 41.649648 41.62752893 0 0 0 0 0 0 0 0 STD5.60
2026-06-04 14:18:58 12 18.40 0.060000 41.649648 41.62752893 0 0 0 0 0 0 0 0 STD5.60
2026-06-04 14:13:56 11 19.40 0.055000 41.649648 41.62752893 0 0 0 0 0 0 0 0 STD5.60
2026-06-04 14:08:54 18 19.20 0.090000 41.649648 41.62752893 0 0 0 0 0 0 0 0 STD5.60
2026-06-04 14:03:52 19 17.80 0.095000 41.649648 41.62752893 0 0 0 0 0 0 0 0 STD5.60
2026-06-04 13:58:51 15 16.90 0.075000 41.649648 41.62752893 0 0 0 0 0 0 0 0 STD5.60
2026-06-04 13:53:45 17 15.80 0.085000 41.649648 41.62752893 0 0 0 0 0 0 0 0 STD5.60
2026-06-04 13:48:43 20 18.40 0.100000 41.649648 41.62752893 0 0 0 0 0 0 0 0 STD5.60
2026-06-04 13:43:41 13 20.80 0.065000 41.649648 41.62752893 0 0 0 0 0 0 0 0 STD5.60
2026-06-04 13:38:39 21 19.90 0.105000 41.649648 41.62752893 0 0 0 0 0 0 0 0 STD5.60
Geiger Counter World Map       A real time radiation map.     Copyright 2015 All rights reserved.